Terminal Aerodrome Forecast
Issued by NWS

Home | Current Version | Previous Version | Text Only | Print | Product List | Glossary On
Versions: 1 2 3 4 5 6 7 8 9 10 11 12 13 14
000
FTUS45 KTFX 262339
TAFCTB
TAF
KCTB 262339Z 2700/2724 VRB06KT P6SM SCT040 BKN070
      TEMPO 2700/2702 4SM TSRAGS BKN040CB
     FM270300 24010KT P6SM FEW030 BKN050
     FM271500 25013G18KT P6SM SCT050=

USA.gov is the U.S. government's official web portal to all federal, state and local government web resources and services.